createdAt,value
2019-03-08T00:00:14.034Z,8.80
2019-03-08T00:03:17.410Z,8.86
2019-03-08T00:06:20.623Z,8.87
2019-03-08T00:09:23.810Z,8.97
2019-03-08T00:12:26.998Z,9.04
2019-03-08T00:15:30.083Z,9.09
2019-03-08T00:18:33.175Z,9.15
2019-03-08T00:21:36.275Z,9.29
2019-03-08T00:24:39.470Z,9.37
2019-03-08T00:27:42.554Z,9.48
2019-03-08T00:30:45.755Z,9.46
2019-03-08T00:33:48.856Z,9.49
2019-03-08T00:36:52.051Z,9.49
2019-03-08T00:39:55.227Z,9.50
2019-03-08T00:42:58.320Z,9.42
2019-03-08T00:46:01.410Z,9.48
2019-03-08T00:49:04.626Z,9.49
2019-03-08T00:52:07.802Z,9.49
2019-03-08T00:55:11.019Z,9.51
2019-03-08T00:58:14.220Z,9.52
2019-03-08T01:01:17.394Z,9.54
2019-03-08T01:04:20.583Z,9.58
2019-03-08T01:07:23.770Z,9.60
2019-03-08T01:10:26.888Z,9.57
2019-03-08T01:13:30.158Z,9.53
2019-03-08T01:16:33.258Z,9.57
2019-03-08T01:19:36.455Z,9.55
2019-03-08T01:22:39.647Z,9.54
2019-03-08T01:25:42.852Z,9.54
2019-03-08T01:28:46.044Z,9.58
2019-03-08T01:31:49.123Z,9.56
2019-03-08T01:34:52.343Z,9.54
2019-03-08T01:37:55.526Z,9.54
2019-03-08T01:40:59.697Z,9.47
2019-03-08T01:44:02.847Z,9.38
2019-03-08T01:47:06.019Z,9.24
2019-03-08T01:50:09.412Z,9.19
2019-03-08T01:53:12.508Z,9.07
2019-03-08T01:56:15.594Z,9.00
2019-03-08T01:59:18.686Z,8.87
2019-03-08T02:02:21.892Z,8.79
2019-03-08T02:05:24.972Z,8.69
2019-03-08T02:08:28.063Z,8.71
2019-03-08T02:11:31.154Z,8.66
2019-03-08T02:14:34.252Z,8.64
2019-03-08T02:17:37.351Z,8.67
2019-03-08T02:20:40.552Z,8.64
2019-03-08T02:23:43.735Z,8.62
2019-03-08T02:26:47.031Z,8.59
2019-03-08T02:29:50.124Z,8.59
2019-03-08T02:32:53.422Z,8.54
2019-03-08T02:35:56.722Z,8.58
2019-03-08T02:39:00.018Z,8.51
2019-03-08T02:42:03.896Z,8.55
2019-03-08T02:45:07.227Z,8.58
2019-03-08T02:48:10.414Z,8.54
2019-03-08T02:51:13.513Z,8.62
2019-03-08T02:54:16.733Z,8.58
2019-03-08T02:57:19.879Z,8.53
2019-03-08T03:00:23.030Z,8.52
2019-03-08T03:03:26.175Z,8.48
2019-03-08T03:06:29.261Z,8.49
2019-03-08T03:09:32.376Z,8.46
2019-03-08T03:12:35.465Z,8.41
2019-03-08T03:15:38.549Z,8.37
2019-03-08T03:18:41.757Z,8.33
2019-03-08T03:21:45.033Z,8.30
2019-03-08T03:24:48.151Z,8.32
2019-03-08T03:27:51.334Z,8.27
2019-03-08T03:30:54.528Z,8.30
2019-03-08T03:33:57.715Z,8.30
2019-03-08T03:37:00.933Z,8.32
2019-03-08T03:40:05.090Z,8.32
2019-03-08T03:43:08.244Z,8.33
2019-03-08T03:46:11.409Z,8.25
2019-03-08T03:49:14.499Z,8.23
2019-03-08T03:52:17.607Z,8.25
2019-03-08T03:55:20.707Z,8.26
2019-03-08T03:58:24.424Z,8.22
2019-03-08T04:01:30.631Z,8.25
2019-03-08T04:04:33.888Z,8.26
2019-03-08T04:07:37.059Z,8.25
2019-03-08T04:10:40.247Z,8.25
2019-03-08T04:13:43.439Z,8.22
2019-03-08T04:16:46.527Z,8.24
2019-03-08T04:19:49.770Z,8.26
2019-03-08T04:22:52.932Z,8.24
2019-03-08T04:25:56.133Z,8.24
2019-03-08T04:28:59.337Z,8.19
2019-03-08T04:32:02.507Z,8.19
2019-03-08T04:35:05.749Z,8.19
2019-03-08T04:38:08.895Z,8.18
2019-03-08T04:41:12.087Z,8.22
2019-03-08T04:44:15.188Z,8.21
2019-03-08T04:47:18.470Z,8.16
2019-03-08T04:50:21.576Z,8.12
2019-03-08T04:53:24.859Z,8.03
2019-03-08T04:56:27.948Z,7.99
2019-03-08T04:59:31.047Z,7.95
2019-03-08T05:02:34.252Z,7.96
2019-03-08T05:05:37.434Z,7.91
2019-03-08T05:08:40.530Z,7.91
2019-03-08T05:11:43.627Z,7.95
2019-03-08T05:14:46.919Z,7.86
2019-03-08T05:17:50.119Z,7.85
2019-03-08T05:20:53.316Z,7.90
2019-03-08T05:23:56.511Z,7.93
2019-03-08T05:26:59.605Z,7.94
2019-03-08T05:30:02.794Z,7.93
2019-03-08T05:33:05.874Z,7.93
2019-03-08T05:36:09.080Z,7.94
2019-03-08T05:39:12.187Z,7.89
2019-03-08T05:42:15.375Z,7.91
2019-03-08T05:45:18.583Z,7.87
2019-03-08T05:48:21.767Z,7.89
2019-03-08T05:51:24.950Z,7.83
2019-03-08T05:54:28.151Z,7.85
2019-03-08T05:57:31.344Z,7.83
2019-03-08T06:00:34.920Z,7.78
2019-03-08T06:03:37.831Z,7.80
2019-03-08T06:06:41.019Z,7.77
2019-03-08T06:09:44.118Z,7.79
2019-03-08T06:12:47.323Z,7.77
2019-03-08T06:15:50.539Z,7.73
2019-03-08T06:18:53.700Z,7.71
2019-03-08T06:21:56.899Z,7.65
2019-03-08T06:25:00.727Z,7.68
2019-03-08T06:28:04.403Z,7.63
2019-03-08T06:31:07.588Z,7.68
2019-03-08T06:34:10.693Z,7.65
2019-03-08T06:37:13.940Z,7.65
2019-03-08T06:40:17.106Z,7.66
2019-03-08T06:43:20.368Z,7.68
2019-03-08T06:46:23.459Z,7.78
2019-03-08T06:49:26.559Z,7.89
2019-03-08T06:52:29.650Z,8.03
2019-03-08T06:55:32.865Z,8.12
2019-03-08T06:58:41.431Z,8.16
2019-03-08T07:01:44.576Z,8.25
2019-03-08T07:04:47.755Z,8.31
2019-03-08T07:07:51.024Z,8.37
2019-03-08T07:10:54.160Z,8.41
2019-03-08T07:13:57.350Z,8.43
2019-03-08T07:17:00.545Z,8.49
2019-03-08T07:20:08.982Z,8.53
2019-03-08T07:23:15.968Z,8.52
2019-03-08T07:26:25.108Z,8.54
2019-03-08T07:29:33.395Z,8.52
2019-03-08T07:32:41.622Z,8.58
2019-03-08T07:35:50.002Z,8.61
2019-03-08T07:38:58.428Z,8.64
2019-03-08T07:42:07.104Z,8.64
2019-03-08T07:45:15.447Z,8.64
2019-03-08T07:49:29.703Z,8.81
2019-03-08T07:52:43.137Z,8.89
2019-03-08T07:55:57.113Z,8.90
2019-03-08T07:59:05.443Z,8.90
2019-03-08T08:02:13.908Z,8.89
2019-03-08T08:06:30.442Z,9.00
2019-03-08T08:09:37.736Z,9.02
2019-03-08T08:12:45.773Z,9.07
2019-03-08T08:15:54.351Z,9.30
2019-03-08T08:19:04.663Z,9.49
2019-03-08T08:22:14.036Z,9.57
2019-03-08T08:25:22.431Z,9.56
2019-03-08T08:30:33.788Z,9.58
2019-03-08T08:33:41.156Z,9.66
2019-03-08T08:37:52.563Z,9.60
2019-03-08T08:41:01.089Z,9.57
2019-03-08T08:44:09.626Z,9.61
2019-03-08T08:47:19.862Z,9.86
2019-03-08T08:50:33.094Z,10.11
2019-03-08T08:53:48.555Z,10.28
2019-03-08T08:56:57.086Z,10.19
2019-03-08T09:00:09.462Z,10.16
2019-03-08T09:03:17.843Z,10.21
2019-03-08T09:06:26.091Z,10.25
2019-03-08T09:09:36.415Z,10.29
2019-03-08T09:12:47.765Z,10.21
2019-03-08T09:15:55.916Z,10.20
2019-03-08T09:19:11.150Z,10.26
2019-03-08T09:22:26.546Z,10.32
2019-03-08T09:25:34.839Z,10.38
2019-03-08T09:28:42.148Z,10.56
2019-03-08T09:31:49.429Z,10.91
2019-03-08T09:34:57.688Z,11.13
2019-03-08T09:38:05.048Z,11.11
2019-03-08T09:41:13.710Z,10.98
2019-03-08T09:44:23.119Z,10.90
2019-03-08T09:47:31.340Z,10.78
2019-03-08T09:50:42.563Z,10.72
2019-03-08T09:53:51.899Z,10.82
2019-03-08T09:59:02.895Z,10.73
2019-03-08T10:02:14.064Z,10.73
2019-03-08T10:05:38.614Z,10.66
2019-03-08T10:08:46.893Z,10.67
2019-03-08T10:11:58.123Z,10.77
2019-03-08T10:15:12.471Z,10.67
2019-03-08T10:18:20.934Z,10.74
2019-03-08T10:21:39.229Z,10.79
2019-03-08T10:24:50.410Z,10.70
2019-03-08T10:27:57.689Z,10.66
2019-03-08T10:31:08.988Z,10.55
2019-03-08T10:34:16.268Z,10.56
2019-03-08T10:39:28.192Z,10.41
2019-03-08T10:43:38.251Z,10.08
2019-03-08T10:46:47.428Z,10.23
2019-03-08T10:49:58.827Z,10.24
2019-03-08T10:53:09.063Z,10.31
2019-03-08T10:56:20.494Z,10.37
2019-03-08T10:59:27.895Z,10.38
2019-03-08T11:02:36.084Z,10.37
2019-03-08T11:07:51.519Z,10.35
2019-03-08T11:11:15.026Z,10.38
2019-03-08T11:14:23.173Z,10.29
2019-03-08T11:17:33.489Z,10.34
2019-03-08T11:20:59.027Z,10.33
2019-03-08T11:24:07.208Z,10.33
2019-03-08T11:27:14.605Z,10.37
2019-03-08T11:30:23.031Z,10.47
2019-03-08T11:33:32.361Z,10.49
2019-03-08T11:36:44.176Z,10.51
2019-03-08T11:39:58.692Z,10.57
2019-03-08T11:43:13.071Z,10.44
2019-03-08T11:46:21.636Z,10.42
2019-03-08T11:49:30.242Z,10.30
2019-03-08T11:52:38.883Z,10.22
2019-03-08T11:55:59.355Z,10.13
2019-03-08T11:59:11.736Z,9.81
2019-03-08T12:02:20.989Z,9.74
2019-03-08T12:05:45.354Z,9.72
2019-03-08T12:08:52.719Z,9.72
2019-03-08T12:12:00.916Z,9.64
2019-03-08T12:15:10.011Z,9.61
2019-03-08T12:18:19.274Z,9.65
2019-03-08T12:21:32.833Z,9.75
2019-03-08T12:24:40.135Z,9.75
2019-03-08T12:27:48.559Z,10.19
2019-03-08T12:30:59.906Z,10.68
2019-03-08T12:34:44.699Z,11.08
2019-03-08T12:37:51.999Z,11.38
2019-03-08T12:41:06.368Z,11.74
2019-03-08T12:44:13.563Z,11.70
2019-03-08T12:47:36.955Z,11.72
2019-03-08T12:51:51.028Z,11.60
2019-03-08T12:54:59.624Z,11.54
2019-03-08T12:58:06.983Z,11.74
2019-03-08T13:01:14.276Z,11.84
2019-03-08T13:04:27.518Z,12.07
2019-03-08T13:07:37.679Z,11.62
2019-03-08T13:10:40.788Z,11.49
2019-03-08T13:13:44.022Z,11.77
2019-03-08T13:16:47.168Z,12.26
2019-03-08T13:19:50.370Z,12.15
2019-03-08T13:22:53.579Z,11.87
2019-03-08T13:25:56.767Z,11.79
2019-03-08T13:28:59.971Z,11.60
2019-03-08T13:32:03.168Z,11.44
2019-03-08T13:35:06.947Z,11.40
2019-03-08T13:38:10.144Z,11.25
2019-03-08T13:41:13.231Z,11.27
2019-03-08T13:44:16.347Z,11.21
2019-03-08T13:47:19.522Z,11.11
2019-03-08T13:50:22.715Z,10.95
2019-03-08T13:53:25.907Z,10.18
2019-03-08T13:56:29.103Z,9.74
2019-03-08T13:59:32.243Z,9.89
2019-03-08T14:02:35.396Z,10.23
2019-03-08T14:05:38.588Z,10.82
2019-03-08T14:08:41.784Z,10.65
2019-03-08T14:11:44.881Z,10.64
2019-03-08T14:14:47.991Z,10.83
2019-03-08T14:17:51.085Z,10.82
2019-03-08T14:20:54.255Z,10.89
2019-03-08T14:23:57.462Z,10.79
2019-03-08T14:27:00.623Z,10.96
2019-03-08T14:30:03.941Z,10.98
2019-03-08T14:33:07.239Z,11.04
2019-03-08T14:36:10.446Z,10.94
2019-03-08T14:39:13.628Z,10.88
2019-03-08T14:42:33.217Z,10.95
2019-03-08T14:45:44.521Z,11.14
2019-03-08T14:48:46.275Z,11.21
2019-03-08T14:51:49.424Z,11.24
2019-03-08T14:54:51.337Z,11.31
2019-03-08T14:57:55.312Z,11.54
2019-03-08T15:00:57.597Z,11.65
2019-03-08T15:04:00.686Z,12.04
2019-03-08T15:07:04.585Z,12.22
2019-03-08T15:10:07.723Z,11.93
2019-03-08T15:13:10.914Z,11.86
2019-03-08T15:16:14.343Z,11.98
2019-03-08T15:19:17.495Z,12.02
2019-03-08T15:22:20.680Z,11.91
2019-03-08T15:25:23.876Z,11.93
2019-03-08T15:28:26.966Z,11.99
2019-03-08T15:31:30.171Z,11.94
2019-03-08T15:34:33.352Z,11.81
2019-03-08T15:37:43.979Z,11.79
2019-03-08T15:40:39.757Z,11.61
2019-03-08T15:43:42.934Z,11.61
2019-03-08T15:46:46.039Z,11.48
2019-03-08T15:49:49.224Z,11.37
2019-03-08T15:52:52.431Z,11.37
2019-03-08T15:55:55.657Z,11.35
2019-03-08T15:58:58.817Z,11.33
2019-03-08T16:02:05.784Z,11.45
2019-03-08T16:05:05.278Z,11.46
2019-03-08T16:08:08.412Z,11.47
2019-03-08T16:11:11.621Z,11.50
2019-03-08T16:14:14.803Z,11.41
2019-03-08T16:17:17.988Z,11.38
2019-03-08T16:20:21.084Z,11.42
2019-03-08T16:23:24.311Z,11.43
2019-03-08T16:26:27.559Z,11.44
2019-03-08T16:29:30.785Z,11.50
2019-03-08T16:32:39.278Z,11.55
2019-03-08T16:36:05.800Z,11.60
2019-03-08T16:39:14.514Z,11.46
2019-03-08T16:42:37.055Z,11.43
2019-03-08T16:45:50.631Z,11.48
2019-03-08T16:49:10.599Z,11.41
2019-03-08T16:52:50.463Z,11.30
2019-03-08T16:55:59.765Z,11.25
2019-03-08T16:59:08.955Z,11.15
2019-03-08T17:02:17.258Z,11.05
2019-03-08T17:05:25.867Z,11.02
2019-03-08T17:08:38.220Z,10.88
2019-03-08T17:11:47.497Z,10.86
2019-03-08T17:14:54.796Z,10.83
2019-03-08T17:18:02.077Z,10.71
2019-03-08T17:21:21.447Z,10.67
2019-03-08T17:24:33.689Z,10.64
2019-03-08T17:27:43.980Z,10.59
2019-03-08T17:30:52.168Z,10.54
2019-03-08T17:34:00.524Z,10.39
2019-03-08T17:37:09.940Z,10.32
2019-03-08T17:41:17.046Z,10.25
2019-03-08T17:44:25.535Z,10.18
2019-03-08T17:51:24.044Z,10.10
2019-03-08T17:54:31.315Z,10.09
2019-03-08T17:57:40.451Z,10.08
2019-03-08T18:00:52.628Z,10.03
2019-03-08T18:04:07.852Z,10.01
2019-03-08T18:07:16.651Z,10.00
2019-03-08T18:10:24.645Z,9.79
2019-03-08T18:14:32.027Z,9.77
2019-03-08T18:17:39.312Z,9.76
2019-03-08T18:20:46.627Z,9.72
2019-03-08T18:24:02.069Z,9.73
2019-03-08T18:27:15.367Z,9.75
2019-03-08T18:30:25.640Z,9.65
2019-03-08T18:34:09.676Z,9.57
2019-03-08T18:37:18.331Z,9.49
2019-03-08T18:40:27.881Z,9.36
2019-03-08T18:43:35.184Z,9.34
2019-03-08T18:46:43.672Z,9.29
2019-03-08T18:49:54.419Z,9.25
2019-03-08T18:53:03.081Z,9.23
2019-03-08T18:56:15.479Z,9.22
2019-03-08T18:59:34.987Z,9.16
2019-03-08T19:02:43.318Z,9.07
2019-03-08T19:05:52.607Z,9.04
2019-03-08T19:09:01.794Z,9.04
2019-03-08T19:12:09.064Z,8.94
2019-03-08T19:15:25.473Z,8.90
2019-03-08T19:18:32.783Z,8.94
2019-03-08T19:21:45.164Z,8.97
2019-03-08T19:24:54.011Z,9.01
2019-03-08T19:28:06.235Z,9.01
2019-03-08T19:32:12.422Z,8.96
2019-03-08T19:35:38.944Z,8.92
2019-03-08T19:38:47.054Z,8.89
2019-03-08T19:41:55.191Z,8.85
2019-03-08T19:45:03.416Z,8.82
2019-03-08T19:48:10.781Z,8.81
2019-03-08T19:51:19.151Z,8.81
2019-03-08T19:54:27.499Z,8.85
2019-03-08T19:57:43.876Z,8.86
2019-03-08T20:00:52.080Z,8.86
2019-03-08T20:04:00.664Z,8.92
2019-03-08T20:07:09.295Z,8.93
2019-03-08T20:11:16.854Z,8.88
2019-03-08T20:14:31.108Z,8.81
2019-03-08T20:17:38.501Z,8.80
2019-03-08T20:20:49.707Z,8.79
2019-03-08T20:23:57.087Z,8.78
2019-03-08T20:27:06.822Z,8.79
2019-03-08T20:30:15.044Z,8.79
2019-03-08T20:33:28.296Z,8.84
2019-03-08T20:36:35.673Z,8.86
2019-03-08T20:39:45.868Z,8.85
2019-03-08T20:42:54.363Z,8.84
2019-03-08T20:46:04.895Z,8.88
2019-03-08T20:49:08.036Z,8.91
2019-03-08T20:52:11.145Z,8.81
2019-03-08T20:55:14.328Z,8.82
2019-03-08T20:58:17.994Z,8.84
2019-03-08T21:01:21.595Z,8.84
2019-03-08T21:04:24.783Z,8.84
2019-03-08T21:07:27.934Z,8.87
2019-03-08T21:10:31.038Z,8.89
2019-03-08T21:13:34.215Z,8.87
2019-03-08T21:16:37.551Z,8.90
2019-03-08T21:19:40.606Z,8.89
2019-03-08T21:22:43.820Z,8.86
2019-03-08T21:25:47.069Z,8.86
2019-03-08T21:28:50.173Z,8.89
2019-03-08T21:31:53.385Z,8.87
2019-03-08T21:34:56.585Z,8.84
2019-03-08T21:37:59.771Z,8.81
2019-03-08T21:41:02.942Z,8.82
2019-03-08T21:44:06.052Z,8.87
2019-03-08T21:47:09.251Z,8.79
2019-03-08T21:50:12.964Z,8.69
2019-03-08T21:53:16.146Z,8.66
2019-03-08T21:56:19.231Z,8.65
2019-03-08T21:59:22.523Z,8.65
2019-03-08T22:02:25.746Z,8.65
2019-03-08T22:05:31.888Z,8.62
2019-03-08T22:08:35.059Z,8.65
2019-03-08T22:11:40.387Z,8.66
2019-03-08T22:14:43.513Z,8.66
2019-03-08T22:17:46.707Z,8.66
2019-03-08T22:20:49.811Z,8.57
2019-03-08T22:23:53.059Z,8.61
2019-03-08T22:26:56.195Z,8.58
2019-03-08T22:29:59.391Z,8.58
2019-03-08T22:33:02.586Z,8.53
2019-03-08T22:36:05.767Z,8.56
2019-03-08T22:39:08.857Z,8.59
2019-03-08T22:42:11.958Z,8.59
2019-03-08T22:45:15.075Z,8.58
2019-03-08T22:48:18.293Z,8.61
2019-03-08T22:51:21.554Z,8.60
2019-03-08T22:54:24.750Z,8.62
2019-03-08T22:57:28.038Z,8.64
2019-03-08T23:00:38.656Z,8.62
2019-03-08T23:03:41.802Z,8.59
2019-03-08T23:06:44.995Z,8.61
2019-03-08T23:09:48.185Z,8.60
2019-03-08T23:12:51.271Z,8.63
2019-03-08T23:15:54.474Z,8.59
2019-03-08T23:18:57.657Z,8.55
2019-03-08T23:22:00.743Z,8.49
2019-03-08T23:25:03.871Z,8.44
2019-03-08T23:28:12.515Z,8.41
2019-03-08T23:32:18.746Z,8.38
2019-03-08T23:35:21.959Z,8.40
2019-03-08T23:38:25.171Z,8.41
2019-03-08T23:41:28.353Z,8.46
2019-03-08T23:44:31.546Z,8.50
2019-03-08T23:47:35.431Z,8.53
2019-03-08T23:50:38.648Z,8.52
2019-03-08T23:53:41.827Z,8.48
2019-03-08T23:56:45.019Z,8.47
2019-03-08T23:59:48.231Z,8.50
